Time;durP1;ratioP1;P1;durP2;ratioP2;P2;SDS_P1;SDS_P2;PMS_P1;PMS_P2;Temp;Humidity;BMP_temperature;BMP_pressure;BME280_temperature;BME280_humidity;BME280_pressure;Samples;Min_cycle;Max_cycle;Signal;HPM_P1;HPM_P2
2023/07/13 00:01:39;;;;;;;1.88;1.30;;;;;;;;;;5157670;27;20418;-67
2023/07/13 00:04:06;;;;;;;2.05;1.30;;;;;;;;;;5155364;27;20208;-67
2023/07/13 00:06:35;;;;;;;1.38;1.20;;;;;;;;;;5153736;27;20214;-67
2023/07/13 00:09:01;;;;;;;3.17;1.38;;;;;;;;;;5155078;27;20501;-67
2023/07/13 00:11:28;;;;;;;1.50;1.17;;;;;;;;;;5157206;27;20197;-67
2023/07/13 00:13:54;;;;;;;1.33;1.10;;;;;;;;;;5156351;27;20530;-67
2023/07/13 00:16:20;;;;;;;1.33;1.17;;;;;;;;;;5153475;27;20190;-67
2023/07/13 00:18:47;;;;;;;2.80;1.27;;;;;;;;;;5153745;27;20370;-67
2023/07/13 00:21:15;;;;;;;1.27;1.10;;;;;;;;;;5156340;27;20193;-67
2023/07/13 00:23:42;;;;;;;3.53;1.08;;;;;;;;;;5156601;27;20193;-67
2023/07/13 00:26:09;;;;;;;3.35;1.02;;;;;;;;;;5154402;27;20213;-67
2023/07/13 00:28:36;;;;;;;1.95;1.25;;;;;;;;;;5150719;27;20280;-67
2023/07/13 00:31:02;;;;;;;2.15;1.20;;;;;;;;;;5155477;27;20194;-67
2023/07/13 00:33:29;;;;;;;3.15;1.27;;;;;;;;;;5152995;27;20377;-67
2023/07/13 00:35:56;;;;;;;4.28;1.50;;;;;;;;;;5153396;27;20198;-68
2023/07/13 00:38:24;;;;;;;2.22;1.23;;;;;;;;;;5156474;27;20553;-68
2023/07/13 00:40:50;;;;;;;1.65;0.98;;;;;;;;;;5156506;27;20251;-68
2023/07/13 00:43:18;;;;;;;3.58;1.30;;;;;;;;;;5153110;27;20245;-68
2023/07/13 00:46:03;;;;;;;3.45;2.00;;;;;;;;;;5152992;27;20245;-68
2023/07/13 00:48:30;;;;;;;4.18;2.97;;;;;;;;;;5145042;27;20474;-68
2023/07/13 00:50:59;;;;;;;4.40;3.13;;;;;;;;;;5152992;27;20194;-68
2023/07/13 00:53:28;;;;;;;9.02;3.35;;;;;;;;;;5155823;27;20519;-68
2023/07/13 00:55:55;;;;;;;4.03;2.25;;;;;;;;;;5156174;27;20448;-68
2023/07/13 00:58:22;;;;;;;2.15;1.40;;;;;;;;;;5144615;27;20201;-68
2023/07/13 01:00:50;;;;;;;2.92;1.95;;;;;;;;;;5152382;27;20202;-68
2023/07/13 01:03:17;;;;;;;4.05;1.88;;;;;;;;;;5155231;27;20234;-68
2023/07/13 01:05:43;;;;;;;6.35;1.90;;;;;;;;;;5155716;27;20210;-68
2023/07/13 01:08:10;;;;;;;2.88;1.48;;;;;;;;;;5147224;27;20209;-68
2023/07/13 01:10:39;;;;;;;2.00;1.00;;;;;;;;;;5156125;27;20426;-67
2023/07/13 01:13:05;;;;;;;1.48;1.00;;;;;;;;;;5154237;27;20433;-67
2023/07/13 01:15:36;;;;;;;1.30;1.20;;;;;;;;;;5152295;27;20194;-67
2023/07/13 01:18:03;;;;;;;3.30;1.35;;;;;;;;;;5152979;27;20231;-68
2023/07/13 01:20:29;;;;;;;1.50;0.98;;;;;;;;;;5155607;27;20197;-68
2023/07/13 01:22:57;;;;;;;2.70;1.08;;;;;;;;;;5155599;27;20197;-68
2023/07/13 01:25:23;;;;;;;2.33;0.85;;;;;;;;;;5143511;27;20210;-68
2023/07/13 01:27:49;;;;;;;0.93;0.90;;;;;;;;;;5151995;27;20214;-68
2023/07/13 01:30:15;;;;;;;2.05;1.02;;;;;;;;;;5154758;27;20206;-68
2023/07/13 01:32:42;;;;;;;5.00;1.08;;;;;;;;;;5155221;27;20498;-68
2023/07/13 01:35:08;;;;;;;3.30;1.08;;;;;;;;;;5153867;27;20220;-68
2023/07/13 01:37:35;;;;;;;2.55;1.00;;;;;;;;;;5152086;27;20202;-68
2023/07/13 01:40:04;;;;;;;3.33;1.00;;;;;;;;;;5160842;27;20270;-68
2023/07/13 01:42:30;;;;;;;2.30;0.82;;;;;;;;;;5151693;27;20261;-67
2023/07/13 01:44:56;;;;;;;0.75;0.75;;;;;;;;;;5151812;27;20201;-67
2023/07/13 01:47:23;;;;;;;0.90;0.90;;;;;;;;;;5143341;27;20194;-67
2023/07/13 01:49:51;;;;;;;3.35;1.02;;;;;;;;;;5151752;27;20205;-67
2023/07/13 01:52:18;;;;;;;4.28;0.90;;;;;;;;;;5154252;27;20289;-68
2023/07/13 01:54:44;;;;;;;1.00;0.95;;;;;;;;;;5155278;27;20231;-68
2023/07/13 01:57:11;;;;;;;3.67;0.90;;;;;;;;;;5153452;27;20201;-68
2023/07/13 01:59:38;;;;;;;2.70;1.15;;;;;;;;;;5151329;27;20198;-68
2023/07/13 02:02:04;;;;;;;0.95;0.77;;;;;;;;;;5152084;27;20194;-68
2023/07/13 02:04:30;;;;;;;2.15;0.77;;;;;;;;;;5154838;27;20193;-68
2023/07/13 02:06:57;;;;;;;1.50;1.00;;;;;;;;;;5155204;27;20533;-68
2023/07/13 02:09:23;;;;;;;2.90;1.10;;;;;;;;;;5151655;27;20198;-68
2023/07/13 02:11:49;;;;;;;2.05;0.98;;;;;;;;;;5151621;27;20198;-68
2023/07/13 02:14:17;;;;;;;3.58;0.90;;;;;;;;;;5153525;27;20205;-68
2023/07/13 02:16:44;;;;;;;4.65;1.10;;;;;;;;;;5154871;27;20190;-68
2023/07/13 02:19:10;;;;;;;1.95;0.98;;;;;;;;;;5153464;27;20426;-68
2023/07/13 02:21:36;;;;;;;1.23;1.05;;;;;;;;;;5151535;27;20207;-68
2023/07/13 02:24:02;;;;;;;0.70;0.70;;;;;;;;;;5151544;27;20198;-68
2023/07/13 02:26:29;;;;;;;2.22;1.00;;;;;;;;;;5154780;27;20277;-68
2023/07/13 02:28:55;;;;;;;4.47;1.23;;;;;;;;;;5154821;27;20281;-67
2023/07/13 02:31:23;;;;;;;2.85;1.00;;;;;;;;;;5151991;27;20370;-68
2023/07/13 02:33:49;;;;;;;1.52;1.08;;;;;;;;;;5151242;27;20194;-68
2023/07/13 02:36:16;;;;;;;1.17;0.93;;;;;;;;;;5153427;27;20199;-68
2023/07/13 02:38:42;;;;;;;4.43;0.90;;;;;;;;;;5154843;27;20194;-68
2023/07/13 02:41:09;;;;;;;0.80;0.80;;;;;;;;;;5153505;27;20404;-68
2023/07/13 02:43:36;;;;;;;3.00;0.93;;;;;;;;;;5150957;27;20222;-68
2023/07/13 02:46:06;;;;;;;3.83;1.20;;;;;;;;;;5151122;27;20220;-67
2023/07/13 02:48:34;;;;;;;3.20;1.23;;;;;;;;;;5154817;27;20193;-67
2023/07/13 02:51:00;;;;;;;1.55;0.80;;;;;;;;;;5154878;27;20209;-67
2023/07/13 02:53:27;;;;;;;2.67;1.15;;;;;;;;;;5142819;27;20191;-67
2023/07/13 02:55:53;;;;;;;1.40;1.30;;;;;;;;;;5149844;27;20197;-68
2023/07/13 02:58:19;;;;;;;1.25;1.10;;;;;;;;;;5151995;27;20206;-68
2023/07/13 03:00:46;;;;;;;4.93;0.90;;;;;;;;;;5150966;27;20198;-67
2023/07/13 03:03:13;;;;;;;2.40;1.38;;;;;;;;;;5152366;27;20202;-67
2023/07/13 03:05:41;;;;;;;2.65;1.02;;;;;;;;;;5154608;27;20213;-67
2023/07/13 03:08:08;;;;;;;1.98;1.00;;;;;;;;;;5153563;27;20201;-67
2023/07/13 03:10:34;;;;;;;4.00;1.02;;;;;;;;;;5152136;27;20198;-67
2023/07/13 03:13:00;;;;;;;2.72;1.02;;;;;;;;;;5154423;27;20198;-67
2023/07/13 03:15:27;;;;;;;4.93;0.95;;;;;;;;;;5158270;27;20220;-67
2023/07/13 03:17:53;;;;;;;1.85;1.00;;;;;;;;;;5158205;27;20194;-67
2023/07/13 03:20:20;;;;;;;1.10;1.00;;;;;;;;;;5155504;27;20205;-68
2023/07/13 03:22:47;;;;;;;2.28;1.10;;;;;;;;;;5160701;27;20197;-67
2023/07/13 03:25:13;;;;;;;1.63;0.90;;;;;;;;;;5156256;27;20229;-67
2023/07/13 03:27:40;;;;;;;2.50;1.40;;;;;;;;;;5154627;27;20218;-67
2023/07/13 03:30:07;;;;;;;1.88;1.10;;;;;;;;;;5154953;27;20524;-67
2023/07/13 03:32:33;;;;;;;1.85;0.90;;;;;;;;;;5158007;27;20493;-67
2023/07/13 03:34:59;;;;;;;2.42;1.15;;;;;;;;;;5157913;27;20201;-67
2023/07/13 03:37:26;;;;;;;2.85;1.30;;;;;;;;;;5154558;27;20197;-68
2023/07/13 03:39:53;;;;;;;5.95;1.35;;;;;;;;;;5154102;27;20202;-68
2023/07/13 03:42:20;;;;;;;1.10;1.00;;;;;;;;;;5156288;27;20213;-68
2023/07/13 03:44:52;;;;;;;3.63;1.10;;;;;;;;;;5157643;27;20396;-68
2023/07/13 03:47:18;;;;;;;1.75;0.90;;;;;;;;;;5155455;27;20218;-68
2023/07/13 03:49:45;;;;;;;1.10;1.08;;;;;;;;;;5154409;27;20486;-68
2023/07/13 03:52:12;;;;;;;4.32;1.30;;;;;;;;;;5155004;27;20198;-68
2023/07/13 03:54:38;;;;;;;1.70;1.10;;;;;;;;;;5157650;27;20525;-68
2023/07/13 03:57:06;;;;;;;5.25;1.30;;;;;;;;;;5157687;27;20198;-68
2023/07/13 03:59:33;;;;;;;2.88;1.00;;;;;;;;;;5145678;27;20353;-68
2023/07/13 04:02:01;;;;;;;3.40;1.38;;;;;;;;;;5153659;27;20218;-68
2023/07/13 04:04:27;;;;;;;2.05;1.40;;;;;;;;;;5156650;27;20255;-68
2023/07/13 04:06:53;;;;;;;1.20;1.10;;;;;;;;;;5157419;27;20569;-68
2023/07/13 04:09:21;;;;;;;1.65;1.40;;;;;;;;;;5155321;27;20220;-68
2023/07/13 04:11:47;;;;;;;4.63;1.05;;;;;;;;;;5153656;27;20195;-68
2023/07/13 04:14:14;;;;;;;3.20;1.13;;;;;;;;;;5154315;27;20205;-68
2023/07/13 04:16:41;;;;;;;2.08;1.00;;;;;;;;;;5157085;27;20520;-73
2023/07/13 04:19:07;;;;;;;1.95;1.10;;;;;;;;;;5156784;27;20194;-72
2023/07/13 04:21:33;;;;;;;1.23;1.00;;;;;;;;;;5153199;27;20203;-73
2023/07/13 04:24:00;;;;;;;2.08;1.20;;;;;;;;;;5153135;27;20195;-73
2023/07/13 04:26:26;;;;;;;5.13;1.30;;;;;;;;;;5156031;27;20214;-72
2023/07/13 04:28:52;;;;;;;1.98;1.17;;;;;;;;;;5156727;27;20213;-72
2023/07/13 04:31:20;;;;;;;2.25;0.85;;;;;;;;;;5155061;27;20209;-72
2023/07/13 04:33:46;;;;;;;3.17;1.20;;;;;;;;;;5153223;27;20627;-72
2023/07/13 04:36:13;;;;;;;1.73;1.00;;;;;;;;;;5153897;27;20214;-72
2023/07/13 04:38:39;;;;;;;4.45;0.90;;;;;;;;;;5156539;27;20208;-72
2023/07/13 04:41:06;;;;;;;3.15;1.30;;;;;;;;;;5156657;27;20625;-72
2023/07/13 04:43:33;;;;;;;3.80;1.20;;;;;;;;;;5156563;27;20436;-72
2023/07/13 04:46:03;;;;;;;2.38;1.17;;;;;;;;;;5156557;27;20217;-72
2023/07/13 04:48:31;;;;;;;4.10;1.30;;;;;;;;;;5153318;27;20201;-72
2023/07/13 04:50:58;;;;;;;3.85;1.13;;;;;;;;;;5153793;27;20228;-72
2023/07/13 04:53:24;;;;;;;3.15;1.20;;;;;;;;;;5155837;27;20280;-72
2023/07/13 04:55:51;;;;;;;1.42;1.25;;;;;;;;;;5156789;27;20296;-72
2023/07/13 04:58:17;;;;;;;5.85;1.45;;;;;;;;;;5154874;27;20527;-72
2023/07/13 05:00:43;;;;;;;3.38;1.20;;;;;;;;;;5152528;27;20213;-72
2023/07/13 05:03:10;;;;;;;5.05;0.93;;;;;;;;;;5152843;27;20386;-72
2023/07/13 05:05:37;;;;;;;2.70;1.25;;;;;;;;;;5156317;27;20197;-72
2023/07/13 05:08:04;;;;;;;1.45;1.20;;;;;;;;;;5156090;27;20214;-72
2023/07/13 05:10:30;;;;;;;2.08;0.95;;;;;;;;;;5152992;27;20198;-72
2023/07/13 05:12:56;;;;;;;3.22;1.25;;;;;;;;;;5152249;27;20389;-72
2023/07/13 05:15:24;;;;;;;4.18;1.00;;;;;;;;;;5154184;27;20256;-72
2023/07/13 05:17:50;;;;;;;2.58;1.45;;;;;;;;;;5156197;27;20269;-72
2023/07/13 05:20:17;;;;;;;2.05;1.33;;;;;;;;;;5154992;27;20198;-72
2023/07/13 05:22:46;;;;;;;1.77;1.05;;;;;;;;;;5152399;27;20412;-72
2023/07/13 05:25:13;;;;;;;3.08;1.20;;;;;;;;;;5152567;27;20198;-72
2023/07/13 05:27:40;;;;;;;1.17;1.00;;;;;;;;;;5155472;27;20285;-72
2023/07/13 05:30:06;;;;;;;2.83;1.48;;;;;;;;;;5155570;27;20217;-72
2023/07/13 05:32:33;;;;;;;4.47;1.10;;;;;;;;;;5151896;27;20200;-72
2023/07/13 05:34:59;;;;;;;3.25;1.05;;;;;;;;;;5151991;27;20501;-72
2023/07/13 05:37:26;;;;;;;1.20;1.10;;;;;;;;;;5154545;27;20198;-72
2023/07/13 05:39:53;;;;;;;2.58;1.30;;;;;;;;;;5155413;27;20193;-72
2023/07/13 05:42:20;;;;;;;1.77;1.02;;;;;;;;;;5153761;27;20431;-72
2023/07/13 05:44:46;;;;;;;1.88;1.00;;;;;;;;;;5151915;27;20198;-72
2023/07/13 05:47:14;;;;;;;4.13;1.35;;;;;;;;;;5152220;27;20545;-72
2023/07/13 05:49:40;;;;;;;3.45;1.13;;;;;;;;;;5155464;27;20248;-72
2023/07/13 05:52:06;;;;;;;2.72;1.20;;;;;;;;;;5155407;27;20213;-72
2023/07/13 05:54:33;;;;;;;1.58;1.30;;;;;;;;;;5152154;27;20201;-72
2023/07/13 05:57:00;;;;;;;1.67;1.05;;;;;;;;;;5151754;27;20190;-72
2023/07/13 05:59:27;;;;;;;3.30;1.27;;;;;;;;;;5153591;27;20202;-72
2023/07/13 06:01:53;;;;;;;2.83;1.40;;;;;;;;;;5155430;27;20201;-72
2023/07/13 06:04:19;;;;;;;7.35;1.20;;;;;;;;;;5153888;27;20220;-72
2023/07/13 06:06:46;;;;;;;2.13;1.08;;;;;;;;;;5151487;27;20214;-72
2023/07/13 06:09:12;;;;;;;4.60;1.15;;;;;;;;;;5151597;27;20226;-72
2023/07/13 06:11:38;;;;;;;3.42;1.52;;;;;;;;;;5155650;27;20404;-73
2023/07/13 06:14:06;;;;;;;2.05;1.15;;;;;;;;;;5155280;27;20202;-73
2023/07/13 06:16:32;;;;;;;3.22;1.23;;;;;;;;;;5152731;27;20252;-73
2023/07/13 06:18:58;;;;;;;3.90;1.48;;;;;;;;;;5151934;27;20194;-73
2023/07/13 06:21:25;;;;;;;2.47;1.30;;;;;;;;;;5153423;27;20243;-73
2023/07/13 06:23:52;;;;;;;3.28;1.38;;;;;;;;;;5155105;27;20684;-73
2023/07/13 06:26:18;;;;;;;2.47;1.45;;;;;;;;;;5154342;27;20205;-73
2023/07/13 06:28:45;;;;;;;2.53;1.55;;;;;;;;;;5151485;27;20220;-73
2023/07/13 06:31:13;;;;;;;2.97;1.33;;;;;;;;;;5151870;27;20529;-73
2023/07/13 06:33:40;;;;;;;3.03;1.30;;;;;;;;;;5143146;27;20195;-73
2023/07/13 06:36:07;;;;;;;4.57;1.63;;;;;;;;;;5151932;27;20417;-73
2023/07/13 06:38:34;;;;;;;6.18;1.20;;;;;;;;;;5146591;27;20213;-62
2023/07/13 06:41:00;;;;;;;2.85;1.02;;;;;;;;;;5147376;27;20465;-62
2023/07/13 06:43:28;;;;;;;4.70;1.77;;;;;;;;;;5148026;27;20259;-60
2023/07/13 06:45:55;;;;;;;3.33;1.30;;;;;;;;;;5145445;27;20202;-60
2023/07/13 06:48:24;;;;;;;3.30;1.17;;;;;;;;;;5152784;27;20225;-60
2023/07/13 06:50:52;;;;;;;4.28;1.20;;;;;;;;;;5143168;27;20206;-60
2023/07/13 06:53:19;;;;;;;2.30;1.38;;;;;;;;;;5141372;27;20211;-59
2023/07/13 06:55:46;;;;;;;1.85;1.15;;;;;;;;;;5142101;27;20210;-60
2023/07/13 06:58:12;;;;;;;3.22;1.20;;;;;;;;;;5142595;27;20213;-60
2023/07/13 07:00:40;;;;;;;3.22;1.15;;;;;;;;;;5142123;27;20229;-61
2023/07/13 07:03:06;;;;;;;3.13;1.30;;;;;;;;;;5140280;27;20210;-60
2023/07/13 07:05:34;;;;;;;1.20;1.10;;;;;;;;;;5143006;27;20210;-60
2023/07/13 07:08:00;;;;;;;5.78;1.50;;;;;;;;;;5148709;27;20449;-60
2023/07/13 07:10:27;;;;;;;5.60;1.50;;;;;;;;;;5144861;27;20211;-59
2023/07/13 07:12:53;;;;;;;3.90;1.42;;;;;;;;;;5144057;27;20198;-59
2023/07/13 07:15:19;;;;;;;1.42;1.10;;;;;;;;;;5149182;27;20202;-58
2023/07/13 07:17:46;;;;;;;2.90;1.30;;;;;;;;;;5144343;27;20249;-60
2023/07/13 07:20:13;;;;;;;8.35;1.35;;;;;;;;;;5148872;27;20297;-60
2023/07/13 07:22:41;;;;;;;89.65;16.50;;;;;;;;;;5143903;27;20212;-60
2023/07/13 07:25:07;;;;;;;15.27;4.47;;;;;;;;;;5142485;27;20214;-60
2023/07/13 07:27:34;;;;;;;5.40;1.50;;;;;;;;;;5148281;27;20226;-60
2023/07/13 07:30:00;;;;;;;6.93;1.42;;;;;;;;;;5144842;27;20206;-60
2023/07/13 07:32:27;;;;;;;2.05;1.10;;;;;;;;;;5146786;27;20567;-60
2023/07/13 07:34:53;;;;;;;3.70;1.20;;;;;;;;;;5139980;27;20206;-60
2023/07/13 07:37:19;;;;;;;4.05;1.20;;;;;;;;;;5141191;27;20222;-60
2023/07/13 07:39:47;;;;;;;3.38;1.10;;;;;;;;;;5143313;27;20206;-60
2023/07/13 07:42:13;;;;;;;5.32;1.00;;;;;;;;;;5145555;27;20210;-60
2023/07/13 07:44:40;;;;;;;2.85;0.90;;;;;;;;;;5144055;27;20209;-60
2023/07/13 07:47:07;;;;;;;1.95;0.80;;;;;;;;;;5138951;27;20505;-60
2023/07/13 07:49:33;;;;;;;3.10;0.90;;;;;;;;;;5150194;27;20210;-60
2023/07/13 07:51:59;;;;;;;4.43;1.38;;;;;;;;;;5146025;27;20379;-60
2023/07/13 07:54:25;;;;;;;6.57;1.17;;;;;;;;;;5140965;27;20323;-60
2023/07/13 07:56:53;;;;;;;1.55;1.08;;;;;;;;;;5143454;27;20206;-60
2023/07/13 07:59:20;;;;;;;7.20;1.00;;;;;;;;;;5154701;27;20517;-60
2023/07/13 08:01:47;;;;;;;1.55;1.08;;;;;;;;;;5142549;27;20206;-60
2023/07/13 08:04:14;;;;;;;2.95;1.00;;;;;;;;;;5147666;27;20473;-59
2023/07/13 08:06:40;;;;;;;1.80;0.82;;;;;;;;;;5144344;27;20212;-60
2023/07/13 08:09:07;;;;;;;3.58;1.10;;;;;;;;;;5142019;27;20222;-60
2023/07/13 08:11:34;;;;;;;5.97;1.15;;;;;;;;;;5147269;27;20544;-60
2023/07/13 08:14:02;;;;;;;4.10;0.80;;;;;;;;;;5141934;27;20206;-60
2023/07/13 08:16:28;;;;;;;1.92;0.82;;;;;;;;;;5148728;27;20210;-60
2023/07/13 08:18:54;;;;;;;3.47;0.80;;;;;;;;;;5147124;27;20212;-59
2023/07/13 08:21:21;;;;;;;3.17;0.88;;;;;;;;;;5141694;27;20218;-60
2023/07/13 08:23:48;;;;;;;1.15;0.85;;;;;;;;;;5143469;27;20232;-60
2023/07/13 08:26:14;;;;;;;2.70;1.00;;;;;;;;;;5140713;27;20214;-57
2023/07/13 08:28:40;;;;;;;3.25;0.80;;;;;;;;;;5145327;27;20261;-60
2023/07/13 08:31:08;;;;;;;2.90;0.98;;;;;;;;;;5147705;27;20551;-60
2023/07/13 08:33:35;;;;;;;2.30;1.00;;;;;;;;;;5146109;27;20410;-60
2023/07/13 08:36:02;;;;;;;5.70;0.98;;;;;;;;;;5143338;27;20393;-60
2023/07/13 08:38:28;;;;;;;3.78;1.08;;;;;;;;;;5148477;27;20582;-60
2023/07/13 08:40:55;;;;;;;0.98;0.90;;;;;;;;;;5146096;27;20432;-60
2023/07/13 08:43:25;;;;;;;3.92;1.10;;;;;;;;;;5137798;27;20217;-60
2023/07/13 08:45:54;;;;;;;1.75;0.90;;;;;;;;;;5143165;27;20268;-60
2023/07/13 08:48:23;;;;;;;4.53;1.00;;;;;;;;;;5143304;27;20225;-60
2023/07/13 08:50:52;;;;;;;1.98;0.70;;;;;;;;;;5143869;27;20206;-60
2023/07/13 08:53:19;;;;;;;2.80;0.90;;;;;;;;;;5145094;27;20239;-60
2023/07/13 08:55:45;;;;;;;6.18;1.08;;;;;;;;;;5140667;27;20206;-60
2023/07/13 08:58:13;;;;;;;1.30;1.00;;;;;;;;;;5146519;27;20206;-60
2023/07/13 09:00:43;;;;;;;3.75;0.90;;;;;;;;;;5141174;27;20220;-59
2023/07/13 09:03:18;;;;;;;2.72;1.00;;;;;;;;;;5140450;27;20430;-60
2023/07/13 09:05:50;;;;;;;2.38;1.00;;;;;;;;;;5147618;27;20205;-60
2023/07/13 09:08:31;;;;;;;1.95;0.80;;;;;;;;;;5141507;27;20230;-59
2023/07/13 09:11:01;;;;;;;2.28;1.10;;;;;;;;;;5142211;27;20201;-59
2023/07/13 09:13:30;;;;;;;2.45;0.93;;;;;;;;;;5145254;27;20214;-58
2023/07/13 09:15:58;;;;;;;0.95;0.95;;;;;;;;;;5142292;27;20603;-59
2023/07/13 09:18:26;;;;;;;3.67;1.10;;;;;;;;;;5138764;27;20518;-60
2023/07/13 09:20:55;;;;;;;9.35;1.10;;;;;;;;;;5137764;27;20213;-60
2023/07/13 09:23:22;;;;;;;0.85;0.85;;;;;;;;;;5143726;27;20448;-59
2023/07/13 09:25:54;;;;;;;1.92;0.77;;;;;;;;;;5131277;27;20198;-59
2023/07/13 09:28:22;;;;;;;3.03;0.93;;;;;;;;;;5137911;27;20477;-58
2023/07/13 09:30:53;;;;;;;4.55;0.90;;;;;;;;;;5145191;27;20240;-60
2023/07/13 09:33:19;;;;;;;4.07;0.98;;;;;;;;;;5145481;27;20423;-59
2023/07/13 09:35:45;;;;;;;2.13;0.90;;;;;;;;;;5146001;27;20545;-60
2023/07/13 09:38:14;;;;;;;3.35;1.00;;;;;;;;;;5143785;27;20282;-60
2023/07/13 09:40:44;;;;;;;2.42;0.90;;;;;;;;;;5140546;27;20216;-61
2023/07/13 09:43:13;;;;;;;4.88;0.90;;;;;;;;;;5139582;27;20210;-60
2023/07/13 09:45:40;;;;;;;2.47;0.88;;;;;;;;;;5142159;27;20229;-61
2023/07/13 09:48:07;;;;;;;3.10;1.30;;;;;;;;;;5145173;27;20234;-60
2023/07/13 09:50:34;;;;;;;2.40;0.95;;;;;;;;;;5140325;27;20217;-60
2023/07/13 09:53:01;;;;;;;3.00;1.13;;;;;;;;;;5140858;27;20224;-60
2023/07/13 09:55:30;;;;;;;3.85;1.00;;;;;;;;;;5137348;27;20214;-60
2023/07/13 09:57:56;;;;;;;3.83;1.02;;;;;;;;;;5142969;27;20201;-59
2023/07/13 10:00:24;;;;;;;1.80;0.90;;;;;;;;;;5143220;27;20225;-60
2023/07/13 10:02:58;;;;;;;4.00;1.13;;;;;;;;;;5145579;27;20206;-60
2023/07/13 10:05:25;;;;;;;2.33;0.85;;;;;;;;;;5147523;27;20220;-60
2023/07/13 10:07:52;;;;;;;5.82;1.13;;;;;;;;;;5139899;27;20217;-60
2023/07/13 10:10:19;;;;;;;2.75;1.20;;;;;;;;;;5144558;27;20210;-59
2023/07/13 10:12:48;;;;;;;0.75;0.75;;;;;;;;;;5148910;27;20332;-60
2023/07/13 10:15:15;;;;;;;4.38;1.13;;;;;;;;;;5142397;27;20202;-61
2023/07/13 10:17:42;;;;;;;2.58;1.13;;;;;;;;;;5143609;27;20214;-60
2023/07/13 10:20:12;;;;;;;1.10;0.90;;;;;;;;;;5146931;27;20208;-60
2023/07/13 10:22:43;;;;;;;5.22;1.08;;;;;;;;;;5143899;27;20210;-61
2023/07/13 10:25:14;;;;;;;2.45;0.90;;;;;;;;;;5147779;27;20215;-59
2023/07/13 10:27:41;;;;;;;3.17;0.98;;;;;;;;;;5150618;27;20551;-59
2023/07/13 10:30:13;;;;;;;1.60;1.00;;;;;;;;;;5142385;27;20270;-60
2023/07/13 10:32:39;;;;;;;4.63;1.15;;;;;;;;;;5146938;27;20216;-59
2023/07/13 10:35:07;;;;;;;4.68;1.00;;;;;;;;;;5150236;27;20575;-59
2023/07/13 10:37:37;;;;;;;2.65;0.90;;;;;;;;;;5145104;27;20209;-59
2023/07/13 10:40:05;;;;;;;2.83;1.08;;;;;;;;;;5152818;27;20201;-59
2023/07/13 10:42:34;;;;;;;4.68;1.10;;;;;;;;;;5148708;27;20517;-59
2023/07/13 10:45:00;;;;;;;3.53;1.10;;;;;;;;;;5142733;27;20206;-59
2023/07/13 10:47:29;;;;;;;4.75;1.20;;;;;;;;;;5144707;27;20212;-59
2023/07/13 10:49:57;;;;;;;3.65;1.10;;;;;;;;;;5149208;27;20210;-58
2023/07/13 10:52:42;;;;;;;4.07;1.02;;;;;;;;;;5141122;27;20218;-59
2023/07/13 10:55:30;;;;;;;6.25;1.30;;;;;;;;;;5138410;27;20409;-59
2023/07/13 10:58:00;;;;;;;5.70;1.42;;;;;;;;;;5138208;27;20212;-59
2023/07/13 11:00:27;;;;;;;3.75;0.93;;;;;;;;;;5148198;27;20206;-59
2023/07/13 11:03:01;;;;;;;5.57;1.00;;;;;;;;;;5145500;27;20226;-58
2023/07/13 11:05:29;;;;;;;5.00;1.25;;;;;;;;;;5150537;27;20220;-59
2023/07/13 11:08:02;;;;;;;2.75;0.90;;;;;;;;;;5140219;27;20206;-59
2023/07/13 11:10:48;;;;;;;3.17;0.80;;;;;;;;;;5143348;27;20379;-59
2023/07/13 11:13:29;;;;;;;0.95;0.90;;;;;;;;;;5147131;27;20214;-59
2023/07/13 11:15:55;;;;;;;2.67;1.00;;;;;;;;;;5142790;27;20410;-58
2023/07/13 11:18:25;;;;;;;2.90;0.90;;;;;;;;;;5148802;27;20209;-59
2023/07/13 11:20:51;;;;;;;3.40;1.10;;;;;;;;;;5148544;27;20470;-58
2023/07/13 11:23:19;;;;;;;5.45;1.00;;;;;;;;;;5146505;27;20216;-59
2023/07/13 11:25:45;;;;;;;1.67;0.88;;;;;;;;;;5143382;27;20209;-59
2023/07/13 11:28:17;;;;;;;2.13;0.98;;;;;;;;;;5151982;27;20302;-59
2023/07/13 11:30:45;;;;;;;5.03;1.10;;;;;;;;;;5139925;27;20209;-68
2023/07/13 11:33:14;;;;;;;2.92;1.00;;;;;;;;;;5148060;27;20518;-68
2023/07/13 11:35:45;;;;;;;3.83;1.10;;;;;;;;;;5148690;27;20215;-68
2023/07/13 11:38:14;;;;;;;3.83;1.02;;;;;;;;;;5141131;27;20217;-68
2023/07/13 11:40:40;;;;;;;3.67;0.88;;;;;;;;;;5149259;27;20228;-69
2023/07/13 11:43:07;;;;;;;4.47;1.13;;;;;;;;;;5151727;27;20205;-69
2023/07/13 11:45:34;;;;;;;4.32;1.08;;;;;;;;;;5151502;27;20379;-68
2023/07/13 11:48:01;;;;;;;1.27;1.10;;;;;;;;;;5148176;27;20214;-68
2023/07/13 11:50:28;;;;;;;3.90;1.05;;;;;;;;;;5140776;27;20243;-68
2023/07/13 11:52:57;;;;;;;1.95;0.95;;;;;;;;;;5140196;27;20213;-68
2023/07/13 11:55:24;;;;;;;3.47;1.08;;;;;;;;;;5139352;27;20210;-68
2023/07/13 11:57:52;;;;;;;3.20;0.90;;;;;;;;;;5146090;27;20236;-69
2023/07/13 12:00:21;;;;;;;2.83;1.15;;;;;;;;;;5146489;27;20208;-69
2023/07/13 12:02:49;;;;;;;2.45;0.93;;;;;;;;;;5140606;27;20480;-68
2023/07/13 12:05:17;;;;;;;3.90;1.30;;;;;;;;;;5147129;27;20422;-68
2023/07/13 12:07:43;;;;;;;2.55;1.30;;;;;;;;;;5143382;27;20415;-68
2023/07/13 12:10:18;;;;;;;4.35;1.20;;;;;;;;;;5146847;27;20230;-69
2023/07/13 12:12:47;;;;;;;2.35;1.20;;;;;;;;;;5148971;27;20205;-68
2023/07/13 12:15:15;;;;;;;4.60;1.23;;;;;;;;;;5146218;27;20297;-69
2023/07/13 12:17:42;;;;;;;1.65;0.90;;;;;;;;;;5139528;27;20217;-68
2023/07/13 12:20:18;;;;;;;3.08;0.90;;;;;;;;;;5144329;27;20205;-70
2023/07/13 12:22:46;;;;;;;5.70;1.38;;;;;;;;;;5138568;27;20210;-70
2023/07/13 12:25:14;;;;;;;1.58;0.93;;;;;;;;;;5147468;27;20753;-70
2023/07/13 12:27:41;;;;;;;4.22;1.00;;;;;;;;;;5141265;27;20258;-70
2023/07/13 12:30:23;;;;;;;2.17;1.08;;;;;;;;;;5141053;27;20495;-70
2023/07/13 12:32:56;;;;;;;3.38;0.88;;;;;;;;;;5147199;27;20209;-70
2023/07/13 12:35:23;;;;;;;5.18;1.08;;;;;;;;;;5138479;27;20209;-70
2023/07/13 12:37:49;;;;;;;1.33;0.88;;;;;;;;;;5149729;27;20214;-70
2023/07/13 12:40:18;;;;;;;4.25;0.98;;;;;;;;;;5141224;27;20214;-70
2023/07/13 12:42:48;;;;;;;2.55;1.00;;;;;;;;;;5141313;27;20526;-70
2023/07/13 12:45:18;;;;;;;3.90;1.13;;;;;;;;;;5139985;27;20217;-70
2023/07/13 12:47:45;;;;;;;3.55;1.30;;;;;;;;;;5139674;27;20597;-70
2023/07/13 12:50:15;;;;;;;2.58;0.90;;;;;;;;;;5146875;27;20210;-70
2023/07/13 12:52:43;;;;;;;4.30;1.30;;;;;;;;;;5146796;27;20205;-70
2023/07/13 12:55:14;;;;;;;2.60;1.02;;;;;;;;;;5137636;27;20468;-70
2023/07/13 12:57:45;;;;;;;7.80;0.90;;;;;;;;;;5140596;27;20537;-70
2023/07/13 13:00:24;;;;;;;4.03;0.90;;;;;;;;;;5143674;27;20216;-70
2023/07/13 13:02:51;;;;;;;1.23;0.90;;;;;;;;;;5140144;27;20297;-70
2023/07/13 13:05:17;;;;;;;4.13;1.13;;;;;;;;;;5138206;27;20210;-70
2023/07/13 13:07:46;;;;;;;2.47;1.20;;;;;;;;;;5140922;27;20466;-70
2023/07/13 13:10:13;;;;;;;3.85;1.20;;;;;;;;;;5143065;27;20655;-70
2023/07/13 13:12:42;;;;;;;2.38;1.38;;;;;;;;;;5146750;27;20209;-70
2023/07/13 13:15:11;;;;;;;4.78;1.13;;;;;;;;;;5139502;27;20277;-70
2023/07/13 13:17:38;;;;;;;6.75;0.85;;;;;;;;;;5140226;27;20521;-70
2023/07/13 13:20:06;;;;;;;3.58;1.20;;;;;;;;;;5143373;27;20409;-70
2023/07/13 13:22:32;;;;;;;2.45;1.05;;;;;;;;;;5141959;27;20210;-70
2023/07/13 13:24:59;;;;;;;5.05;1.25;;;;;;;;;;5144917;27;20206;-71
2023/07/13 13:27:25;;;;;;;5.95;0.82;;;;;;;;;;5146224;27;20860;-70
2023/07/13 13:29:52;;;;;;;2.75;1.10;;;;;;;;;;5143693;27;20221;-70
2023/07/13 13:32:20;;;;;;;7.93;0.90;;;;;;;;;;5139921;27;20451;-70
2023/07/13 13:34:47;;;;;;;4.43;0.82;;;;;;;;;;5136288;27;20216;-70
2023/07/13 13:37:18;;;;;;;2.75;1.10;;;;;;;;;;5135675;27;20293;-70
2023/07/13 13:39:44;;;;;;;6.38;0.93;;;;;;;;;;5135783;27;20198;-71
2023/07/13 13:42:11;;;;;;;4.22;1.20;;;;;;;;;;5146695;27;20209;-70
2023/07/13 13:44:37;;;;;;;0.80;0.80;;;;;;;;;;5138642;27;20210;-70
2023/07/13 13:47:04;;;;;;;5.32;1.25;;;;;;;;;;5133573;27;20209;-70
2023/07/13 13:49:32;;;;;;;1.60;1.13;;;;;;;;;;5151301;27;20222;-70
2023/07/13 13:51:59;;;;;;;2.88;0.93;;;;;;;;;;5154656;27;20202;-70
2023/07/13 13:54:26;;;;;;;3.30;0.80;;;;;;;;;;5154797;27;20201;-70
2023/07/13 13:56:53;;;;;;;4.00;1.10;;;;;;;;;;5153688;27;20211;-71
2023/07/13 13:59:19;;;;;;;1.85;0.98;;;;;;;;;;5152144;27;20210;-71
2023/07/13 14:01:48;;;;;;;3.60;1.10;;;;;;;;;;5152883;27;20198;-70
2023/07/13 14:04:15;;;;;;;3.70;1.00;;;;;;;;;;5155307;27;20222;-70
2023/07/13 14:06:43;;;;;;;1.90;0.80;;;;;;;;;;5154900;27;20196;-70
2023/07/13 14:09:11;;;;;;;2.88;0.95;;;;;;;;;;5151845;27;20431;-71
2023/07/13 14:11:37;;;;;;;4.05;0.85;;;;;;;;;;5151751;27;20202;-71
2023/07/13 14:14:04;;;;;;;3.17;0.98;;;;;;;;;;5154820;27;20200;-71
2023/07/13 14:16:32;;;;;;;1.10;1.00;;;;;;;;;;5155543;27;20228;-71
2023/07/13 14:18:59;;;;;;;1.65;1.02;;;;;;;;;;5152765;27;20504;-71
2023/07/13 14:21:26;;;;;;;3.70;1.33;;;;;;;;;;5151666;27;20222;-71
2023/07/13 14:23:54;;;;;;;2.80;1.20;;;;;;;;;;5153083;27;20201;-71
2023/07/13 14:26:21;;;;;;;3.45;1.20;;;;;;;;;;5155246;27;20197;-71
2023/07/13 14:28:49;;;;;;;5.30;0.90;;;;;;;;;;5154030;27;20224;-71
2023/07/13 14:31:16;;;;;;;1.50;0.95;;;;;;;;;;5151606;27;20222;-71
2023/07/13 14:33:43;;;;;;;6.05;1.05;;;;;;;;;;5151462;27;20201;-71
2023/07/13 14:36:17;;;;;;;2.15;1.05;;;;;;;;;;5154981;27;20426;-70
2023/07/13 14:38:44;;;;;;;3.05;1.08;;;;;;;;;;5154834;27;20416;-70
2023/07/13 14:41:11;;;;;;;4.18;1.10;;;;;;;;;;5151715;27;20270;-70
2023/07/13 14:43:37;;;;;;;3.28;1.15;;;;;;;;;;5151134;27;20198;-70
2023/07/13 14:46:04;;;;;;;0.85;0.80;;;;;;;;;;5154730;27;20485;-70